Time;durP1;ratioP1;P1;durP2;ratioP2;P2;SDS_P1;SDS_P2;PMS_P1;PMS_P2;Temp;Humidity;BMP_temperature;BMP_pressure;BME280_temperature;BME280_humidity;BME280_pressure;Samples;Min_cycle;Max_cycle;Signal;HPM_P1;HPM_P2
2023/01/24 00:00:20;;;;;;;43.90;17.30;;;;;;;2.13;100.00;100842.73;67841;1278;1016366;-59
2023/01/24 00:03:43;;;;;;;48.60;19.50;;;;;;;2.11;100.00;100843.77;67831;1278;1017289;-59
2023/01/24 00:06:45;;;;;;;42.60;18.20;;;;;;;2.09;100.00;100840.13;67687;1278;1016308;-59
2023/01/24 00:09:47;;;;;;;45.70;19.30;;;;;;;2.10;100.00;100836.67;64847;1278;6930260;-59
2023/01/24 00:12:58;;;;;;;45.20;17.80;;;;;;;2.09;100.00;100835.30;67773;1278;1016435;-59
2023/01/24 00:16:01;;;;;;;47.50;19.50;;;;;;;2.12;100.00;100833.77;67833;1278;1016450;-59
2023/01/24 00:19:03;;;;;;;42.30;18.10;;;;;;;2.15;100.00;100832.40;67780;1278;1016830;-59
2023/01/24 00:22:06;;;;;;;44.30;19.10;;;;;;;2.18;100.00;100833.09;67748;1278;1018882;-59
2023/01/24 00:25:09;;;;;;;44.40;18.60;;;;;;;2.24;100.00;100831.06;67766;1278;1016382;-59
2023/01/24 00:28:11;;;;;;;45.70;18.80;;;;;;;2.26;100.00;100828.98;67751;1278;1016428;-59
2023/01/24 00:31:14;;;;;;;39.40;17.20;;;;;;;2.19;100.00;100827.92;67790;1278;1017077;-59
2023/01/24 00:34:16;;;;;;;47.10;19.80;;;;;;;2.19;100.00;100830.87;67825;1278;1016363;-59
2023/01/24 00:37:19;;;;;;;46.10;19.10;;;;;;;2.16;100.00;100831.55;67808;1278;1016465;-59
2023/01/24 00:40:21;;;;;;;47.80;19.00;;;;;;;2.13;100.00;100832.20;67838;1278;1016442;-59
2023/01/24 00:43:25;;;;;;;43.50;18.00;;;;;;;2.13;100.00;100836.54;67778;1278;1019612;-59
2023/01/24 00:46:28;;;;;;;45.70;19.50;;;;;;;2.14;100.00;100836.70;67807;1278;1016163;-59
2023/01/24 00:49:30;;;;;;;41.60;18.50;;;;;;;2.15;100.00;100840.69;67818;1278;1016417;-59
2023/01/24 00:52:33;;;;;;;48.50;20.30;;;;;;;2.18;100.00;100843.64;67812;1278;1016231;-59
2023/01/24 00:55:35;;;;;;;47.80;20.10;;;;;;;2.14;100.00;100844.83;67765;1278;1016416;-59
2023/01/24 00:58:38;;;;;;;56.00;24.00;;;;;;;2.15;100.00;100842.57;67823;1278;1016383;-59
2023/01/24 01:01:40;;;;;;;50.50;22.80;;;;;;;2.16;100.00;100847.42;67795;1278;1016406;-59
2023/01/24 01:04:42;;;;;;;53.30;22.70;;;;;;;2.14;100.00;100843.10;67846;1278;1016462;-59
2023/01/24 01:07:45;;;;;;;57.70;25.20;;;;;;;2.09;100.00;100846.86;67852;1278;1016531;-59
2023/01/24 01:10:47;;;;;;;53.60;23.30;;;;;;;2.11;100.00;100839.09;67864;1278;1016467;-59
2023/01/24 01:13:50;;;;;;;50.20;21.20;;;;;;;2.14;100.00;100839.64;67780;1278;1016474;-59
2023/01/24 01:16:52;;;;;;;44.90;19.70;;;;;;;2.13;100.00;100843.27;67780;1278;1016284;-59
2023/01/24 01:19:55;;;;;;;46.60;19.70;;;;;;;2.17;100.00;100843.64;67835;1278;1016398;-59
2023/01/24 01:22:58;;;;;;;43.10;18.20;;;;;;;2.18;100.00;100846.73;67825;1278;1018395;-59
2023/01/24 01:26:00;;;;;;;45.90;19.30;;;;;;;2.18;100.00;100843.64;67800;1278;1015934;-59
2023/01/24 01:29:02;;;;;;;44.70;19.00;;;;;;;2.19;100.00;100847.27;67800;1278;1018406;-59
2023/01/24 01:32:05;;;;;;;46.20;19.00;;;;;;;2.20;100.00;100842.96;67883;1278;1016763;-59
2023/01/24 01:35:07;;;;;;;48.30;18.80;;;;;;;2.20;100.00;100845.55;67868;1278;1019536;-59
2023/01/24 01:38:10;;;;;;;48.70;20.50;;;;;;;2.18;100.00;100845.52;67810;1256;1016435;-59
2023/01/24 01:41:12;;;;;;;52.10;19.70;;;;;;;2.18;100.00;100849.16;67774;1278;1016653;-59
2023/01/24 01:47:35;;;;;;;49.70;20.10;;;;;;;2.15;100.00;100841.89;67797;1278;1016475;-59
2023/01/24 01:50:37;;;;;;;50.50;21.20;;;;;;;2.16;100.00;100842.59;67822;1278;1016458;-58
2023/01/24 01:53:40;;;;;;;47.70;19.30;;;;;;;2.20;100.00;100839.50;67745;1278;1018110;-59
2023/01/24 01:56:42;;;;;;;49.20;19.10;;;;;;;2.20;100.00;100839.33;67766;1278;1016441;-58
2023/01/24 01:59:44;;;;;;;46.40;19.80;;;;;;;2.22;100.00;100839.34;67796;1278;1016611;-58
2023/01/24 02:02:47;;;;;;;47.30;20.10;;;;;;;2.24;100.00;100835.38;67807;1278;1016475;-58
2023/01/24 02:05:49;;;;;;;48.10;19.70;;;;;;;2.26;100.00;100838.49;67842;1278;1016890;-58
2023/01/24 02:08:52;;;;;;;48.30;19.70;;;;;;;2.27;100.00;100845.07;67847;1278;1016468;-58
2023/01/24 02:11:54;;;;;;;48.90;20.50;;;;;;;2.26;100.00;100841.43;67844;1278;1016413;-59
2023/01/24 02:18:17;;;;;;;54.00;21.70;;;;;;;2.26;100.00;100840.23;67807;1278;1016425;-58
2023/01/24 02:21:19;;;;;;;49.40;20.50;;;;;;;2.29;100.00;100836.62;67691;1278;1016127;-58
2023/01/24 02:24:22;;;;;;;46.50;19.50;;;;;;;2.33;100.00;100835.42;67748;1278;1016386;-58
2023/01/24 02:27:24;;;;;;;46.10;19.40;;;;;;;2.38;100.00;100834.41;67845;1278;1016100;-58
2023/01/24 02:30:27;;;;;;;46.10;18.90;;;;;;;2.34;100.00;100829.39;67855;1278;1016145;-58
2023/01/24 02:33:30;;;;;;;47.00;21.00;;;;;;;2.35;100.00;100825.95;67715;1278;1015937;-58
2023/01/24 02:36:32;;;;;;;48.60;20.50;;;;;;;2.39;100.00;100825.77;67852;1278;1016123;-58
2023/01/24 02:39:34;;;;;;;47.30;19.90;;;;;;;2.41;100.00;100823.20;67838;1278;1016940;-59
2023/01/24 02:42:37;;;;;;;47.80;19.90;;;;;;;2.41;100.00;100826.83;67864;1278;1017491;-59
2023/01/24 02:45:39;;;;;;;45.00;19.30;;;;;;;2.44;100.00;100825.46;67815;1278;1016043;-58
2023/01/24 02:48:42;;;;;;;44.60;18.80;;;;;;;2.42;100.00;100826.31;67717;1278;1017622;-58
2023/01/24 02:55:05;;;;;;;44.80;18.80;;;;;;;2.41;100.00;100831.85;67864;1278;1016435;-59
2023/01/24 02:58:07;;;;;;;46.00;18.30;;;;;;;2.43;100.00;100827.70;67860;1278;1016484;-59
2023/01/24 03:01:09;;;;;;;43.70;17.90;;;;;;;2.43;100.00;100825.98;67818;1278;1018468;-59
2023/01/24 03:04:13;;;;;;;45.90;20.10;;;;;;;2.40;100.00;100826.66;67791;1278;1016335;-59
2023/01/24 03:07:15;;;;;;;46.40;19.60;;;;;;;2.37;100.00;100823.87;67850;1278;1016241;-59
2023/01/24 03:10:18;;;;;;;46.10;19.60;;;;;;;2.38;100.00;100828.20;67796;1278;1015856;-59
2023/01/24 03:36:41;;;;;;;46.60;18.90;;;;;;;2.48;100.00;100814.77;67872;1278;1016558;-59
2023/01/24 03:39:59;;;;;;;42.10;17.40;;;;;;;2.42;100.00;100811.81;67831;1278;1016526;-59
2023/01/24 03:43:02;;;;;;;46.40;18.90;;;;;;;2.42;100.00;100812.50;67851;1278;1016489;-59
2023/01/24 03:46:04;;;;;;;48.60;19.60;;;;;;;2.46;100.00;100813.90;67809;1278;1015761;-59
2023/01/24 03:49:07;;;;;;;45.80;18.60;;;;;;;2.48;100.00;100815.46;67776;1278;1016594;-59
2023/01/24 03:52:28;;;;;;;44.10;18.50;;;;;;;2.52;100.00;100818.40;67811;1278;1016329;-59
2023/01/24 03:55:30;;;;;;;44.90;17.40;;;;;;;2.53;100.00;100812.89;67822;1278;1016359;-59
2023/01/24 03:58:33;;;;;;;46.00;19.30;;;;;;;2.55;100.00;100814.10;67733;1278;1016174;-59
2023/01/24 04:01:35;;;;;;;46.30;18.80;;;;;;;2.50;100.00;100809.77;67852;1278;1017034;-59
2023/01/24 04:07:58;;;;;;;45.20;18.90;;;;;;;2.37;100.00;100817.33;67856;1278;1017505;-58
2023/01/24 04:11:00;;;;;;;45.70;19.10;;;;;;;2.36;100.00;100820.77;67713;1278;1016512;-58
2023/01/24 04:14:03;;;;;;;45.30;18.50;;;;;;;2.33;100.00;100826.10;67680;1278;1016270;-58
2023/01/24 04:17:05;;;;;;;44.20;18.40;;;;;;;2.37;100.00;100825.09;67830;1278;1016289;-58
2023/01/24 04:20:07;;;;;;;45.30;19.00;;;;;;;2.40;100.00;100819.58;67861;1278;1016390;-58
2023/01/24 04:23:11;;;;;;;46.60;19.00;;;;;;;2.43;100.00;100815.63;67878;1278;1016414;-58
2023/01/24 04:26:13;;;;;;;45.90;19.30;;;;;;;2.44;100.00;100818.20;67810;1278;1016289;-59
2023/01/24 04:29:16;;;;;;;49.60;19.90;;;;;;;2.47;100.00;100822.89;67813;1278;1016449;-58
2023/01/24 04:32:18;;;;;;;49.30;20.20;;;;;;;2.46;100.00;100825.83;67837;1278;1016449;-58
2023/01/24 04:35:20;;;;;;;48.90;19.50;;;;;;;2.41;100.00;100823.90;67792;1278;1017665;-58
2023/01/24 04:38:23;;;;;;;48.30;19.70;;;;;;;2.37;100.00;100823.88;67795;1278;1016191;-58
2023/01/24 04:41:25;;;;;;;47.60;19.70;;;;;;;2.42;100.00;100822.35;67824;1278;1016458;-58
2023/01/24 04:44:28;;;;;;;50.20;19.10;;;;;;;2.46;100.00;100822.88;67826;1278;1016579;-58
2023/01/24 04:47:30;;;;;;;50.00;19.60;;;;;;;2.50;100.00;100823.25;67724;1278;1016096;-58
2023/01/24 04:50:33;;;;;;;48.40;20.50;;;;;;;2.61;100.00;100820.34;67812;1278;1016022;-59
2023/01/24 04:53:35;;;;;;;48.60;21.20;;;;;;;2.69;100.00;100821.25;67804;1278;1016474;-58
2023/01/24 04:56:37;;;;;;;50.80;21.70;;;;;;;2.70;100.00;100825.21;67864;1278;1016152;-58
2023/01/24 04:59:40;;;;;;;49.90;20.80;;;;;;;2.77;100.00;100826.27;67744;1278;1016094;-58
2023/01/24 05:02:42;;;;;;;47.00;19.90;;;;;;;2.89;100.00;100829.94;67882;1278;1016406;-58
2023/01/24 05:05:45;;;;;;;48.60;19.80;;;;;;;2.96;100.00;100833.92;67784;1278;1016451;-58
2023/01/24 05:08:47;;;;;;;46.50;19.50;;;;;;;3.03;100.00;100839.46;67830;1278;1016340;-58
2023/01/24 05:11:49;;;;;;;49.20;20.30;;;;;;;3.13;100.00;100838.27;67810;1278;1018846;-58
2023/01/24 05:14:52;;;;;;;49.10;20.10;;;;;;;3.16;100.00;100844.33;67839;1278;1016377;-59
2023/01/24 05:17:54;;;;;;;51.80;20.10;;;;;;;3.10;100.00;100848.14;67852;1278;1015806;-58
2023/01/24 05:20:57;;;;;;;49.20;21.60;;;;;;;3.05;100.00;100858.83;67812;1278;1016505;-58
2023/01/24 05:23:59;;;;;;;53.10;21.20;;;;;;;3.03;100.00;100860.05;67795;1278;1016380;-58
2023/01/24 05:27:01;;;;;;;49.10;20.40;;;;;;;3.11;100.00;100860.58;67813;1278;1017535;-59
2023/01/24 05:30:04;;;;;;;49.80;20.20;;;;;;;3.00;100.00;100869.73;67843;1278;1016539;-58
2023/01/24 05:33:06;;;;;;;49.10;20.40;;;;;;;2.93;100.00;100869.86;67835;1278;1016316;-59
2023/01/24 05:36:09;;;;;;;46.70;19.40;;;;;;;2.91;100.00;100867.61;67840;1278;1016582;-58
2023/01/24 05:39:11;;;;;;;47.40;19.50;;;;;;;2.89;100.00;100865.88;67807;1278;1016477;-59
2023/01/24 05:42:14;;;;;;;49.10;19.40;;;;;;;2.91;100.00;100866.23;67785;1278;1016142;-59
2023/01/24 05:45:16;;;;;;;50.30;20.00;;;;;;;2.96;100.00;100867.98;67831;1278;1018845;-58
2023/01/24 05:48:19;;;;;;;50.80;20.80;;;;;;;3.03;100.00;100867.99;67811;1278;1016474;-58
2023/01/24 05:51:21;;;;;;;47.90;19.20;;;;;;;3.05;100.00;100875.77;67807;1278;1016184;-59
2023/01/24 05:54:23;;;;;;;49.60;19.90;;;;;;;3.01;100.00;100877.50;67830;1278;1016449;-58
2023/01/24 05:57:26;;;;;;;50.60;20.50;;;;;;;2.92;100.00;100883.00;67739;1278;1016407;-58
2023/01/24 06:00:28;;;;;;;48.20;19.80;;;;;;;2.89;100.00;100889.04;67741;1278;1016352;-59
2023/01/24 06:03:31;;;;;;;52.30;21.20;;;;;;;2.84;100.00;100894.02;67835;1278;1016281;-58
2023/01/24 06:06:33;;;;;;;53.00;21.40;;;;;;;2.82;100.00;100897.13;67816;1278;1018937;-58
2023/01/24 06:09:36;;;;;;;52.00;21.30;;;;;;;2.85;100.00;100898.00;67774;1278;1016487;-58
2023/01/24 06:12:38;;;;;;;50.50;19.90;;;;;;;2.78;100.00;100896.77;67760;1278;1016446;-58
2023/01/24 06:15:40;;;;;;;50.30;21.50;;;;;;;2.73;100.00;100897.45;67814;1278;1016386;-58
2023/01/24 06:18:43;;;;;;;48.10;20.50;;;;;;;2.61;100.00;100905.16;67840;1278;1016254;-58
2023/01/24 06:21:45;;;;;;;54.50;22.60;;;;;;;2.47;100.00;100910.09;67863;1278;1016431;-58
2023/01/24 06:24:48;;;;;;;54.50;21.70;;;;;;;2.43;100.00;100906.97;67800;1278;1016482;-58
2023/01/24 06:27:50;;;;;;;54.00;23.20;;;;;;;2.41;100.00;100909.71;67778;1278;1016430;-58
2023/01/24 06:30:52;;;;;;;52.60;21.80;;;;;;;2.39;100.00;100911.09;67807;1278;1016455;-59
2023/01/24 06:33:55;;;;;;;54.40;23.20;;;;;;;2.34;100.00;100906.23;67800;1278;1016436;-58
2023/01/24 06:36:58;;;;;;;48.50;20.10;;;;;;;2.34;100.00;100909.34;67845;1278;1016438;-59
2023/01/24 06:40:00;;;;;;;47.70;20.80;;;;;;;2.31;100.00;100906.89;67824;1278;1016220;-58
2023/01/24 06:43:03;;;;;;;52.20;22.10;;;;;;;2.24;100.00;100908.05;67816;1278;1016404;-58
2023/01/24 06:46:05;;;;;;;54.10;21.10;;;;;;;2.24;100.00;100909.60;67851;1278;1016468;-58
2023/01/24 06:49:08;;;;;;;51.90;22.00;;;;;;;2.23;100.00;100910.30;67805;1278;1017250;-59
2023/01/24 06:52:10;;;;;;;54.00;22.00;;;;;;;2.24;100.00;100910.30;67754;1278;1016323;-58
2023/01/24 06:55:12;;;;;;;55.00;22.30;;;;;;;2.29;100.00;100912.75;67821;1278;1016476;-58
2023/01/24 06:58:15;;;;;;;57.60;22.80;;;;;;;2.30;100.00;100918.11;67846;1278;1016279;-59
2023/01/24 07:01:17;;;;;;;55.20;22.30;;;;;;;2.30;100.00;100918.11;67759;1278;1016469;-59
2023/01/24 07:04:20;;;;;;;52.60;22.40;;;;;;;2.33;100.00;100920.02;67830;1278;1016360;-59
2023/01/24 07:07:22;;;;;;;51.60;22.00;;;;;;;2.36;100.00;100918.85;67797;1278;1016455;-59
2023/01/24 07:10:25;;;;;;;51.00;21.40;;;;;;;2.38;100.00;100920.23;67773;1278;1016472;-59
2023/01/24 07:13:27;;;;;;;52.40;21.10;;;;;;;2.38;100.00;100928.00;67794;1278;1016241;-58
2023/01/24 07:16:29;;;;;;;51.60;21.60;;;;;;;2.37;100.00;100930.42;67842;1278;1016527;-58
2023/01/24 07:19:32;;;;;;;54.00;22.20;;;;;;;2.41;100.00;100931.46;67731;1278;1016061;-59
2023/01/24 07:22:34;;;;;;;51.60;21.40;;;;;;;2.48;100.00;100932.38;67791;1278;1016252;-59
2023/01/24 07:25:38;;;;;;;55.10;22.80;;;;;;;2.52;100.00;100933.96;67783;1278;1016484;-59
2023/01/24 07:28:41;;;;;;;52.90;23.00;;;;;;;2.61;100.00;100933.84;67769;1278;1016304;-59
2023/01/24 07:31:44;;;;;;;49.80;21.50;;;;;;;2.69;100.00;100936.64;67825;1278;1016156;-59
2023/01/24 07:34:46;;;;;;;51.60;21.10;;;;;;;2.78;100.00;100937.02;67777;1278;1016286;-58
2023/01/24 07:37:49;;;;;;;54.40;23.20;;;;;;;2.81;100.00;100936.35;67787;1278;1016412;-58
2023/01/24 07:40:51;;;;;;;53.50;22.70;;;;;;;2.80;100.00;100941.35;67806;1278;1016439;-58
2023/01/24 07:43:53;;;;;;;52.00;21.20;;;;;;;2.81;100.00;100939.46;67741;1278;1018601;-59
2023/01/24 07:46:56;;;;;;;49.50;20.60;;;;;;;2.83;100.00;100942.41;67782;1278;1016211;-58
2023/01/24 07:49:59;;;;;;;52.10;22.80;;;;;;;2.82;100.00;100942.41;67655;1278;1016185;-59
2023/01/24 07:53:01;;;;;;;57.40;22.90;;;;;;;2.80;100.00;100940.84;67851;1278;1016369;-58
2023/01/24 07:56:04;;;;;;;55.50;23.90;;;;;;;2.71;100.00;100942.00;67792;1278;1016467;-58
2023/01/24 07:59:06;;;;;;;56.70;23.80;;;;;;;2.68;100.00;100942.51;67791;1278;1016246;-59
2023/01/24 08:02:09;;;;;;;53.80;23.20;;;;;;;2.65;100.00;100943.19;67712;1278;1016491;-58
2023/01/24 08:05:11;;;;;;;56.10;23.70;;;;;;;2.64;100.00;100941.79;67800;1278;1016427;-58
2023/01/24 08:08:14;;;;;;;60.40;23.80;;;;;;;2.63;100.00;100940.06;67819;1278;1016437;-58
2023/01/24 08:11:17;;;;;;;54.20;22.60;;;;;;;2.64;100.00;100943.35;67811;1278;1016343;-58
2023/01/24 08:14:19;;;;;;;56.20;22.80;;;;;;;2.64;100.00;100948.86;67834;1278;1016395;-59
2023/01/24 08:17:22;;;;;;;53.90;23.00;;;;;;;2.63;100.00;100951.64;67810;1278;1016469;-58
2023/01/24 08:20:24;;;;;;;55.30;23.90;;;;;;;2.69;100.00;100950.98;67798;1278;1018296;-58
2023/01/24 08:23:27;;;;;;;;;;;;;;;2.73;100.00;100949.61;67797;1278;1016440;-59
2023/01/24 08:26:29;;;;;;;56.30;23.30;;;;;;;2.77;100.00;100950.00;67782;1278;1016304;-59
2023/01/24 08:29:32;;;;;;;56.00;22.30;;;;;;;2.83;100.00;100952.42;67801;1277;1016128;-58
2023/01/24 08:32:34;;;;;;;55.20;22.30;;;;;;;2.90;100.00;100947.80;67810;1278;1016057;-58
2023/01/24 08:35:37;;;;;;;51.50;21.60;;;;;;;2.99;100.00;100943.85;67816;1278;1016216;-58
2023/01/24 08:38:39;;;;;;;50.70;21.50;;;;;;;3.03;100.00;100940.59;67740;1278;1016381;-58
2023/01/24 08:41:43;;;;;;;60.50;26.20;;;;;;;3.06;100.00;100943.54;67759;1278;1016435;-58
2023/01/24 08:44:45;;;;;;;67.20;28.10;;;;;;;3.13;100.00;100937.51;67790;1278;1016450;-58
2023/01/24 08:47:48;;;;;;;54.60;21.40;;;;;;;3.15;100.00;100936.32;67769;1278;1016428;-58
2023/01/24 08:50:50;;;;;;;59.60;25.70;;;;;;;3.19;100.00;100940.65;67811;1278;1016143;-59
2023/01/24 08:53:52;;;;;;;50.90;22.50;;;;;;;3.26;100.00;100942.73;67825;1278;1016356;-58
2023/01/24 08:56:55;;;;;;;55.20;22.20;;;;;;;3.31;100.00;100945.86;67762;1278;1016321;-58
2023/01/24 08:59:57;;;;;;;49.40;20.80;;;;;;;3.35;100.00;100946.04;67770;1278;1016275;-59
2023/01/24 09:03:01;;;;;;;48.10;20.40;;;;;;;3.33;100.00;100953.13;67714;1278;1016308;-59
2023/01/24 09:06:03;;;;;;;47.60;20.10;;;;;;;3.34;100.00;100954.70;67675;1278;1016305;-58
2023/01/24 09:09:06;;;;;;;44.60;19.30;;;;;;;3.40;100.00;100958.17;67728;1278;1016053;-58
2023/01/24 09:12:08;;;;;;;51.70;21.80;;;;;;;3.41;100.00;100957.66;67728;1278;1016475;-59
2023/01/24 09:15:10;;;;;;;45.40;18.20;;;;;;;3.40;100.00;100955.58;67801;1278;1016324;-58
2023/01/24 09:18:13;;;;;;;47.80;19.00;;;;;;;3.40;100.00;100955.06;67825;1278;1016542;-58
2023/01/24 09:21:15;;;;;;;51.40;20.70;;;;;;;3.45;100.00;100950.57;67823;1278;1016385;-58
2023/01/24 09:24:19;;;;;;;49.10;22.50;;;;;;;3.52;100.00;100953.35;67763;1278;1016381;-59
2023/01/24 09:27:21;;;;;;;57.60;22.50;;;;;;;3.62;100.00;100952.16;67777;1278;1016225;-58
2023/01/24 09:30:24;;;;;;;47.60;20.30;;;;;;;3.71;100.00;100954.25;67795;1278;1016123;-58
2023/01/24 09:33:26;;;;;;;48.60;19.70;;;;;;;3.78;100.00;100955.11;67784;1278;1016294;-59
2023/01/24 09:36:29;;;;;;;47.50;18.90;;;;;;;3.82;100.00;100956.51;67761;1278;1016320;-59
2023/01/24 09:39:31;;;;;;;46.60;18.20;;;;;;;3.76;100.00;100957.02;67735;1278;1016423;-59
2023/01/24 09:42:34;;;;;;;43.30;18.50;;;;;;;3.70;100.00;100956.67;67785;1278;1016443;-59
2023/01/24 09:45:36;;;;;;;48.00;19.80;;;;;;;3.68;100.00;100955.63;67797;1278;1016454;-59
2023/01/24 09:48:39;;;;;;;48.00;19.40;;;;;;;3.76;100.00;100953.57;67718;1278;1016458;-58
2023/01/24 09:51:41;;;;;;;44.50;18.10;;;;;;;3.84;100.00;100954.27;67822;1278;1018074;-58
2023/01/24 09:54:43;;;;;;;32.40;12.80;;;;;;;3.96;100.00;100949.23;67806;1278;1016384;-58
2023/01/24 09:57:46;;;;;;;35.60;14.10;;;;;;;4.01;100.00;100952.53;67767;1278;1016378;-58
2023/01/24 10:00:48;;;;;;;44.10;22.10;;;;;;;4.05;100.00;100955.30;67734;1278;1018850;-59
2023/01/24 10:03:51;;;;;;;35.10;15.20;;;;;;;4.07;100.00;100956.86;67843;1278;1018294;-58
2023/01/24 10:06:53;;;;;;;52.40;24.40;;;;;;;4.08;100.00;100950.96;67832;1278;1016199;-59
2023/01/24 10:09:56;;;;;;;33.70;13.20;;;;;;;4.13;100.00;100954.44;67747;1278;1016424;-59
2023/01/24 10:12:58;;;;;;;44.40;21.70;;;;;;;4.17;100.00;100949.77;67765;1278;1016321;-59
2023/01/24 10:16:00;;;;;;;42.60;20.70;;;;;;;4.15;100.00;100952.18;67691;1278;1016337;-59
2023/01/24 10:19:03;;;;;;;25.10;8.50;;;;;;;4.18;100.00;100951.48;67771;1278;1018879;-59
2023/01/24 10:22:05;;;;;;;35.90;14.70;;;;;;;4.21;100.00;100947.86;67816;1278;1015773;-59
2023/01/24 10:25:08;;;;;;;28.60;11.10;;;;;;;4.22;100.00;100941.79;67824;1278;1016186;-58
2023/01/24 10:28:10;;;;;;;27.50;9.50;;;;;;;4.23;100.00;100944.20;67706;1278;1018096;-59
2023/01/24 10:31:14;;;;;;;23.00;7.30;;;;;;;4.23;100.00;100942.14;67658;1278;1016085;-59
2023/01/24 10:34:16;;;;;;;41.40;15.30;;;;;;;4.25;100.00;100938.33;67785;1278;1016236;-59
2023/01/24 10:37:19;;;;;;;34.70;13.50;;;;;;;4.30;100.00;100934.33;67774;1278;1016033;-58
2023/01/24 10:40:21;;;;;;;;;;;;;;;4.33;100.00;100932.94;67832;1278;1016259;-59
2023/01/24 10:43:24;;;;;;;32.00;13.00;;;;;;;4.34;100.00;100925.66;67659;1278;1019135;-59
2023/01/24 10:46:27;;;;;;;;;;;;;;;4.39;100.00;100925.48;67724;1278;1016590;-59
2023/01/24 10:49:29;;;;;;;42.30;14.40;;;;;;;4.42;100.00;100927.04;67788;1278;1016352;-59
2023/01/24 10:52:33;;;;;;;25.80;9.00;;;;;;;4.45;100.00;100926.50;67838;1278;1016361;-58
2023/01/24 10:55:37;;;;;;;43.00;15.90;;;;;;;4.47;100.00;100924.42;67839;1278;1016379;-59
2023/01/24 10:58:40;;;;;;;36.40;12.40;;;;;;;4.47;100.00;100920.09;67814;1278;1016419;-59
2023/01/24 11:01:42;;;;;;;24.90;7.90;;;;;;;4.42;100.00;100918.20;67768;1278;1016404;-59
2023/01/24 11:04:45;;;;;;;26.70;8.80;;;;;;;4.44;100.00;100915.08;67741;1278;1016971;-59
2023/01/24 11:07:47;;;;;;;;;;;;;;;4.50;100.00;100906.91;67796;1278;1016650;-59
2023/01/24 11:10:50;;;;;;;21.70;7.10;;;;;;;4.65;100.00;100900.63;67811;1278;1016099;-59
2023/01/24 11:13:52;;;;;;;21.70;7.50;;;;;;;4.72;100.00;100893.16;67830;1278;1016455;-59
2023/01/24 11:16:55;;;;;;;23.80;8.10;;;;;;;4.64;100.00;100892.66;67755;1278;1016457;-59
2023/01/24 11:19:57;;;;;;;26.40;10.10;;;;;;;4.71;100.00;100891.27;67754;1278;1016394;-59
2023/01/24 11:22:59;;;;;;;21.20;7.00;;;;;;;4.86;100.00;100888.08;67785;1278;1016471;-59
2023/01/24 11:26:02;;;;;;;24.00;9.50;;;;;;;5.00;100.00;100886.80;67817;1278;1016481;-59
2023/01/24 11:29:05;;;;;;;26.20;8.50;;;;;;;4.94;100.00;100883.87;67668;1278;1019782;-59
2023/01/24 11:32:08;;;;;;;22.40;7.10;;;;;;;5.01;100.00;100884.18;67820;1278;1016477;-59
2023/01/24 11:35:10;;;;;;;23.90;8.00;;;;;;;5.05;100.00;100878.95;67801;1278;1016236;-59
2023/01/24 11:38:13;;;;;;;24.80;7.70;;;;;;;5.03;100.00;100877.05;67747;1278;1016154;-59
2023/01/24 11:41:19;;;;;;;24.60;8.90;;;;;;;5.15;100.00;100875.09;67735;1278;1018396;-59
2023/01/24 11:44:21;;;;;;;23.10;7.50;;;;;;;5.25;100.00;100873.30;67765;1278;1016234;-59
2023/01/24 11:47:24;;;;;;;21.90;7.00;;;;;;;5.32;100.00;100868.91;67685;1278;1016472;-59
2023/01/24 11:50:26;;;;;;;24.50;7.50;;;;;;;5.25;100.00;100870.51;67814;1278;1016441;-59
2023/01/24 11:53:29;;;;;;;28.20;9.30;;;;;;;5.14;100.00;100872.48;67813;1278;1017409;-59
2023/01/24 11:56:32;;;;;;;;;;;;;;;5.07;100.00;100875.13;67676;1278;1017132;-58
2023/01/24 11:59:34;;;;;;;20.60;6.80;;;;;;;5.08;100.00;100877.91;67822;1278;1016539;-59
2023/01/24 12:02:36;;;;;;;22.00;7.60;;;;;;;5.08;100.00;100877.03;67813;1278;1015823;-59
2023/01/24 12:05:39;;;;;;;20.00;6.30;;;;;;;5.10;100.00;100880.32;67706;1278;1016487;-59
2023/01/24 12:08:42;;;;;;;19.80;5.40;;;;;;;5.18;100.00;100879.92;67723;1278;1016304;-59
2023/01/24 12:11:44;;;;;;;25.40;8.20;;;;;;;5.11;100.00;100880.14;65552;1278;5386465;-59
2023/01/24 12:14:47;;;;;;;;;;;;;;;4.97;100.00;100881.25;67825;1278;1017257;-59
2023/01/24 12:17:49;;;;;;;;;;;;;;;4.98;100.00;100886.80;67783;1278;1017923;-59
2023/01/24 12:20:52;;;;;;;;;;;;;;;4.98;100.00;100890.26;67765;1278;1016457;-59
2023/01/24 12:23:54;;;;;;;;;;;;;;;4.91;100.00;100892.20;67790;1278;1016620;-59
2023/01/24 12:26:57;;;;;;;;;;;;;;;4.97;100.00;100894.25;67848;1278;1016478;-59
2023/01/24 12:30:00;;;;;;;;;;;;;;;4.86;100.00;100896.40;67778;1278;1016559;-58
2023/01/24 12:33:02;;;;;;;;;;;;;;;4.78;100.00;100900.40;67792;1278;1016102;-59
2023/01/24 12:36:05;;;;;;;;;;;;;;;4.60;100.00;100906.38;67777;1278;1016493;-58
2023/01/24 12:39:09;;;;;;;;;;;;;;;4.43;100.00;100909.52;67824;1278;1016921;-59
2023/01/24 12:42:12;;;;;;;;;;;;;;;4.36;100.00;100913.00;67743;1278;1015922;-59
2023/01/24 12:45:14;;;;;;;;;;;;;;;4.32;100.00;100918.05;67710;1278;1016342;-59
2023/01/24 12:48:16;;;;;;;;;;;;;;;4.30;100.00;100918.05;67731;1278;1016147;-59
2023/01/24 12:51:21;;;;;;;;;;;;;;;4.27;100.00;100923.95;67774;1278;1018241;-59
2023/01/24 12:54:23;;;;;;;;;;;;;;;4.21;100.00;100924.98;67763;1278;1016343;-59
2023/01/24 12:57:25;;;;;;;;;;;;;;;4.23;100.00;100923.09;67795;1278;1016484;-59
2023/01/24 13:00:28;;;;;;;;;;;;;;;4.21;100.00;100923.61;67844;1278;1016386;-59
2023/01/24 13:03:30;;;;;;;;;;;;;;;4.17;100.00;100925.34;67810;1278;1016615;-58
2023/01/24 13:06:33;;;;;;;;;;;;;;;4.10;100.00;100927.60;67794;1278;1017111;-59
2023/01/24 13:09:35;;;;;;;;;;;;;;;4.05;100.00;100930.02;67772;1278;1016484;-59
2023/01/24 13:12:38;;;;;;;;;;;;;;;4.04;100.00;100928.80;67785;1278;1016355;-59
2023/01/24 13:15:41;;;;;;;;;;;;;;;4.12;100.00;100923.80;67827;1278;1016527;-59
2023/01/24 13:18:43;;;;;;;;;;;;;;;4.10;100.00;100924.15;67792;1278;1016606;-59
2023/01/24 13:21:45;;;;;;;;;;;;;;;4.08;100.00;100927.42;67801;1278;1016498;-59
2023/01/24 13:24:48;;;;;;;;;;;;;;;4.09;100.00;100929.67;67827;1278;1016388;-59
2023/01/24 13:27:50;;;;;;;;;;;;;;;4.10;100.00;100927.61;67831;1278;1016511;-59
2023/01/24 13:30:53;;;;;;;;;;;;;;;4.07;100.00;100932.11;67750;1278;1016442;-59
2023/01/24 13:33:55;;;;;;;;;;;;;;;4.02;100.00;100932.63;67696;1278;1018827;-59
2023/01/24 13:36:58;;;;;;;;;;;;;;;3.96;100.00;100927.44;67837;1278;1017207;-58
2023/01/24 13:40:01;;;;;;;;;;;;;;;3.91;100.00;100928.82;67811;1278;1016452;-59
2023/01/24 13:43:03;;;;;;;;;;;;;;;3.87;100.00;100935.57;67652;1278;1016599;-59
2023/01/24 13:46:06;;;;;;;;;;;;;;;3.80;100.00;100932.27;67798;1278;1015739;-59
2023/01/24 13:49:08;;;;;;;;;;;;;;;3.77;100.00;100933.66;67853;1278;1016552;-58
2023/01/24 13:52:10;;;;;;;;;;;;;;;3.78;100.00;100930.89;67821;1278;1016251;-58
2023/01/24 13:55:13;;;;;;;;;;;;;;;3.86;100.00;100923.98;67800;1278;1016774;-59
2023/01/24 13:58:16;;;;;;;;;;;;;;;3.95;100.00;100915.66;67764;1278;1016454;-59
2023/01/24 14:01:19;;;;;;;;;;;;;;;4.07;100.00;100914.09;67700;1278;1016345;-59
2023/01/24 14:04:22;;;;;;;;;;;;;;;4.20;100.00;100912.70;67820;1278;1017043;-59
2023/01/24 14:07:24;;;;;;;;;;;;;;;4.30;100.00;100907.48;67792;1278;1016201;-59
2023/01/24 14:10:27;;;;;;;;;;;;;;;4.37;100.00;100906.61;67812;1278;1016641;-58
2023/01/24 14:13:29;;;;;;;;;;;;;;;4.43;100.00;100905.38;67804;1278;1016459;-59
2023/01/24 14:16:31;;;;;;;;;;;;;;;4.44;100.00;100904.85;67691;1278;1016955;-59
2023/01/24 14:19:34;;;;;;;;;;;;;;;4.47;100.00;100907.28;67817;1278;1016438;-59
2023/01/24 14:22:36;;;;;;;;;;;;;;;4.55;100.00;100908.45;67822;1278;1018007;-59
2023/01/24 14:25:40;;;;;;;;;;;;;;;4.49;100.00;100911.43;67745;1278;1016486;-58